sensor_id;sensor_type;location;lat;lon;timestamp;pressure;altitude;pressure_sealevel;temperature;humidity
25722;BME280;13578;53.450;15.496;2023-04-05T00:01:41;100490.34;;;1.53;100.00
25722;BME280;13578;53.450;15.496;2023-04-05T00:04:42;100487.56;;;1.54;100.00
25722;BME280;13578;53.450;15.496;2023-04-05T00:07:49;100485.81;;;1.53;100.00
25722;BME280;13578;53.450;15.496;2023-04-05T00:10:53;100469.75;;;1.49;100.00
25722;BME280;13578;53.450;15.496;2023-04-05T00:13:55;100482.50;;;1.47;100.00
25722;BME280;13578;53.450;15.496;2023-04-05T00:16:56;100475.88;;;1.54;100.00
25722;BME280;13578;53.450;15.496;2023-04-05T00:19:56;100475.50;;;1.41;100.00
25722;BME280;13578;53.450;15.496;2023-04-05T00:22:57;100461.53;;;1.52;100.00
25722;BME280;13578;53.450;15.496;2023-04-05T00:25:58;100471.72;;;1.45;100.00
25722;BME280;13578;53.450;15.496;2023-04-05T00:28:59;100472.91;;;1.38;100.00
25722;BME280;13578;53.450;15.496;2023-04-05T00:31:59;100473.00;;;1.36;100.00
25722;BME280;13578;53.450;15.496;2023-04-05T00:35:00;100467.13;;;1.25;100.00
25722;BME280;13578;53.450;15.496;2023-04-05T00:38:01;100469.06;;;1.21;100.00
25722;BME280;13578;53.450;15.496;2023-04-05T00:41:02;100472.75;;;1.20;100.00
25722;BME280;13578;53.450;15.496;2023-04-05T00:44:03;100462.13;;;1.16;100.00
25722;BME280;13578;53.450;15.496;2023-04-05T00:47:05;100453.75;;;1.22;100.00
25722;BME280;13578;53.450;15.496;2023-04-05T00:50:08;100459.41;;;1.16;100.00
25722;BME280;13578;53.450;15.496;2023-04-05T00:53:10;100460.03;;;1.22;100.00
25722;BME280;13578;53.450;15.496;2023-04-05T00:56:11;100450.41;;;1.15;100.00
25722;BME280;13578;53.450;15.496;2023-04-05T00:59:12;100448.09;;;1.06;100.00
25722;BME280;13578;53.450;15.496;2023-04-05T01:05:39;100454.72;;;0.97;100.00
25722;BME280;13578;53.450;15.496;2023-04-05T01:11:45;100432.31;;;0.95;100.00
25722;BME280;13578;53.450;15.496;2023-04-05T01:14:49;100437.88;;;0.90;100.00
25722;BME280;13578;53.450;15.496;2023-04-05T01:17:50;100442.88;;;0.77;100.00
25722;BME280;13578;53.450;15.496;2023-04-05T01:21:28;100450.06;;;0.78;100.00
25722;BME280;13578;53.450;15.496;2023-04-05T01:24:55;100449.38;;;0.73;100.00
25722;BME280;13578;53.450;15.496;2023-04-05T01:28:19;100449.13;;;0.79;100.00
25722;BME280;13578;53.450;15.496;2023-04-05T01:31:28;100449.66;;;0.66;100.00
25722;BME280;13578;53.450;15.496;2023-04-05T01:35:08;100445.19;;;0.65;100.00
25722;BME280;13578;53.450;15.496;2023-04-05T01:38:02;100437.31;;;0.58;100.00
25722;BME280;13578;53.450;15.496;2023-04-05T01:41:03;100431.25;;;0.52;100.00
25722;BME280;13578;53.450;15.496;2023-04-05T01:44:04;100442.19;;;0.49;100.00
25722;BME280;13578;53.450;15.496;2023-04-05T01:47:05;100432.25;;;0.49;100.00
25722;BME280;13578;53.450;15.496;2023-04-05T01:50:06;100431.75;;;0.39;100.00
25722;BME280;13578;53.450;15.496;2023-04-05T01:53:07;100439.25;;;0.31;100.00
25722;BME280;13578;53.450;15.496;2023-04-05T01:56:08;100429.00;;;0.15;100.00
25722;BME280;13578;53.450;15.496;2023-04-05T01:59:08;100436.53;;;0.07;100.00
25722;BME280;13578;53.450;15.496;2023-04-05T02:02:09;100437.19;;;-0.11;100.00
25722;BME280;13578;53.450;15.496;2023-04-05T02:05:10;100443.34;;;-0.08;100.00
25722;BME280;13578;53.450;15.496;2023-04-05T02:08:10;100435.16;;;-0.30;100.00
25722;BME280;13578;53.450;15.496;2023-04-05T02:11:12;100435.41;;;-0.38;100.00
25722;BME280;13578;53.450;15.496;2023-04-05T02:14:13;100441.88;;;-0.43;100.00
25722;BME280;13578;53.450;15.496;2023-04-05T02:17:13;100431.72;;;-0.62;100.00
25722;BME280;13578;53.450;15.496;2023-04-05T02:20:14;100433.56;;;-0.62;100.00
25722;BME280;13578;53.450;15.496;2023-04-05T02:23:18;100438.31;;;-0.71;100.00
25722;BME280;13578;53.450;15.496;2023-04-05T02:26:19;100435.28;;;-0.88;100.00
25722;BME280;13578;53.450;15.496;2023-04-05T02:29:20;100440.75;;;-0.90;100.00
25722;BME280;13578;53.450;15.496;2023-04-05T02:32:21;100428.28;;;-0.94;100.00
25722;BME280;13578;53.450;15.496;2023-04-05T02:35:22;100429.41;;;-1.01;100.00
25722;BME280;13578;53.450;15.496;2023-04-05T02:38:22;100425.78;;;-1.00;100.00
25722;BME280;13578;53.450;15.496;2023-04-05T02:41:23;100424.63;;;-1.20;100.00
25722;BME280;13578;53.450;15.496;2023-04-05T02:44:25;100425.69;;;-1.25;100.00
25722;BME280;13578;53.450;15.496;2023-04-05T02:47:25;100426.75;;;-1.31;100.00
25722;BME280;13578;53.450;15.496;2023-04-05T02:50:26;100429.44;;;-1.31;100.00
25722;BME280;13578;53.450;15.496;2023-04-05T02:53:27;100425.28;;;-1.41;100.00
25722;BME280;13578;53.450;15.496;2023-04-05T02:56:27;100423.53;;;-1.42;100.00
25722;BME280;13578;53.450;15.496;2023-04-05T02:59:29;100428.72;;;-1.36;100.00
25722;BME280;13578;53.450;15.496;2023-04-05T03:02:30;100421.09;;;-1.52;100.00
25722;BME280;13578;53.450;15.496;2023-04-05T03:05:30;100422.03;;;-1.53;100.00
25722;BME280;13578;53.450;15.496;2023-04-05T03:08:31;100415.72;;;-1.52;100.00
25722;BME280;13578;53.450;15.496;2023-04-05T03:11:32;100413.22;;;-1.58;100.00
25722;BME280;13578;53.450;15.496;2023-04-05T03:14:32;100423.59;;;-1.46;100.00
25722;BME280;13578;53.450;15.496;2023-04-05T03:17:33;100421.94;;;-1.50;100.00
25722;BME280;13578;53.450;15.496;2023-04-05T03:20:35;100428.06;;;-1.45;100.00
25722;BME280;13578;53.450;15.496;2023-04-05T03:23:39;100424.97;;;-1.61;100.00
25722;BME280;13578;53.450;15.496;2023-04-05T03:26:42;100427.72;;;-1.62;100.00
25722;BME280;13578;53.450;15.496;2023-04-05T03:29:42;100427.91;;;-1.70;100.00
25722;BME280;13578;53.450;15.496;2023-04-05T03:32:43;100424.06;;;-1.61;100.00
25722;BME280;13578;53.450;15.496;2023-04-05T03:35:44;100424.81;;;-1.56;100.00
25722;BME280;13578;53.450;15.496;2023-04-05T03:38:44;100423.50;;;-1.72;100.00
25722;BME280;13578;53.450;15.496;2023-04-05T03:41:45;100426.19;;;-1.72;100.00
25722;BME280;13578;53.450;15.496;2023-04-05T03:44:50;100420.56;;;-1.65;100.00
25722;BME280;13578;53.450;15.496;2023-04-05T03:47:52;100425.16;;;-1.68;100.00
25722;BME280;13578;53.450;15.496;2023-04-05T03:50:54;100419.28;;;-1.81;100.00
25722;BME280;13578;53.450;15.496;2023-04-05T03:53:55;100424.53;;;-1.77;100.00
25722;BME280;13578;53.450;15.496;2023-04-05T03:56:56;100421.13;;;-1.83;100.00
25722;BME280;13578;53.450;15.496;2023-04-05T03:59:56;100415.69;;;-1.82;100.00
25722;BME280;13578;53.450;15.496;2023-04-05T04:02:57;100417.84;;;-1.93;100.00
25722;BME280;13578;53.450;15.496;2023-04-05T04:05:58;100430.50;;;-1.97;100.00
25722;BME280;13578;53.450;15.496;2023-04-05T04:08:58;100426.94;;;-1.99;100.00
25722;BME280;13578;53.450;15.496;2023-04-05T04:11:59;100425.16;;;-1.98;100.00
25722;BME280;13578;53.450;15.496;2023-04-05T04:15:00;100431.22;;;-1.92;100.00
25722;BME280;13578;53.450;15.496;2023-04-05T04:18:01;100428.66;;;-1.95;100.00
25722;BME280;13578;53.450;15.496;2023-04-05T04:21:02;100430.81;;;-2.09;100.00
25722;BME280;13578;53.450;15.496;2023-04-05T04:24:06;100430.66;;;-2.03;100.00
25722;BME280;13578;53.450;15.496;2023-04-05T04:27:06;100443.56;;;-2.16;100.00
25722;BME280;13578;53.450;15.496;2023-04-05T04:30:11;100435.63;;;-2.20;100.00
25722;BME280;13578;53.450;15.496;2023-04-05T04:33:13;100436.59;;;-2.23;100.00
25722;BME280;13578;53.450;15.496;2023-04-05T04:36:13;100449.06;;;-2.20;100.00
25722;BME280;13578;53.450;15.496;2023-04-05T04:39:14;100436.41;;;-2.17;100.00
25722;BME280;13578;53.450;15.496;2023-04-05T04:42:15;100438.09;;;-2.13;100.00
25722;BME280;13578;53.450;15.496;2023-04-05T04:45:19;100446.94;;;-2.09;100.00
25722;BME280;13578;53.450;15.496;2023-04-05T04:48:20;100441.56;;;-2.08;100.00
25722;BME280;13578;53.450;15.496;2023-04-05T04:51:20;100447.78;;;-2.07;100.00
25722;BME280;13578;53.450;15.496;2023-04-05T04:54:21;100441.19;;;-1.95;100.00
25722;BME280;13578;53.450;15.496;2023-04-05T04:57:22;100445.97;;;-1.73;100.00
25722;BME280;13578;53.450;15.496;2023-04-05T05:00:24;100443.09;;;-1.67;100.00
25722;BME280;13578;53.450;15.496;2023-04-05T05:03:25;100442.75;;;-1.55;100.00
25722;BME280;13578;53.450;15.496;2023-04-05T05:06:26;100437.91;;;-1.44;100.00
25722;BME280;13578;53.450;15.496;2023-04-05T05:09:29;100439.56;;;-1.39;100.00
25722;BME280;13578;53.450;15.496;2023-04-05T05:12:29;100440.97;;;-1.26;100.00
25722;BME280;13578;53.450;15.496;2023-04-05T05:15:32;100439.88;;;-1.20;100.00
25722;BME280;13578;53.450;15.496;2023-04-05T05:18:32;100447.53;;;-1.06;100.00
25722;BME280;13578;53.450;15.496;2023-04-05T05:21:33;100429.16;;;-1.22;100.00
25722;BME280;13578;53.450;15.496;2023-04-05T05:24:34;100436.72;;;-1.05;100.00
25722;BME280;13578;53.450;15.496;2023-04-05T05:27:34;100436.03;;;-1.12;100.00
25722;BME280;13578;53.450;15.496;2023-04-05T05:30:35;100429.22;;;-0.95;100.00
25722;BME280;13578;53.450;15.496;2023-04-05T05:33:36;100425.97;;;-0.78;100.00
25722;BME280;13578;53.450;15.496;2023-04-05T05:36:36;100427.69;;;-0.75;100.00
25722;BME280;13578;53.450;15.496;2023-04-05T05:39:37;100436.78;;;-0.80;100.00
25722;BME280;13578;53.450;15.496;2023-04-05T05:42:38;100427.84;;;-0.80;100.00
25722;BME280;13578;53.450;15.496;2023-04-05T05:45:48;100433.81;;;-0.70;100.00
25722;BME280;13578;53.450;15.496;2023-04-05T05:48:49;100425.00;;;-0.75;100.00
25722;BME280;13578;53.450;15.496;2023-04-05T05:51:49;100429.88;;;-0.60;100.00
25722;BME280;13578;53.450;15.496;2023-04-05T05:54:51;100426.03;;;-0.53;100.00
25722;BME280;13578;53.450;15.496;2023-04-05T05:57:52;100417.41;;;-0.64;100.00
25722;BME280;13578;53.450;15.496;2023-04-05T06:00:53;100408.41;;;-0.63;100.00
25722;BME280;13578;53.450;15.496;2023-04-05T06:03:58;100408.97;;;-0.53;100.00
25722;BME280;13578;53.450;15.496;2023-04-05T06:06:59;100408.94;;;-0.26;100.00
25722;BME280;13578;53.450;15.496;2023-04-05T06:09:59;100389.06;;;-0.24;100.00
25722;BME280;13578;53.450;15.496;2023-04-05T06:13:01;100394.25;;;-0.18;100.00
25722;BME280;13578;53.450;15.496;2023-04-05T06:16:02;100394.72;;;-0.06;100.00
25722;BME280;13578;53.450;15.496;2023-04-05T06:19:03;100375.06;;;-0.10;100.00
25722;BME280;13578;53.450;15.496;2023-04-05T06:22:03;100376.97;;;-0.13;100.00
25722;BME280;13578;53.450;15.496;2023-04-05T06:25:05;100370.25;;;-0.02;100.00
25722;BME280;13578;53.450;15.496;2023-04-05T06:28:06;100382.88;;;-0.02;100.00
25722;BME280;13578;53.450;15.496;2023-04-05T06:31:06;100371.38;;;0.17;100.00
25722;BME280;13578;53.450;15.496;2023-04-05T06:34:07;100374.75;;;0.23;100.00
25722;BME280;13578;53.450;15.496;2023-04-05T06:37:07;100363.69;;;0.29;100.00
25722;BME280;13578;53.450;15.496;2023-04-05T06:40:09;100356.59;;;0.51;100.00
25722;BME280;13578;53.450;15.496;2023-04-05T06:43:09;100334.66;;;0.36;100.00
25722;BME280;13578;53.450;15.496;2023-04-05T06:46:10;100334.41;;;0.19;100.00
25722;BME280;13578;53.450;15.496;2023-04-05T06:49:11;100350.31;;;0.26;100.00
25722;BME280;13578;53.450;15.496;2023-04-05T06:52:12;100357.38;;;0.53;100.00
25722;BME280;13578;53.450;15.496;2023-04-05T06:55:16;100342.69;;;0.60;100.00
25722;BME280;13578;53.450;15.496;2023-04-05T06:58:16;100340.22;;;0.77;100.00
25722;BME280;13578;53.450;15.496;2023-04-05T07:01:17;100320.78;;;0.68;98.29
25722;BME280;13578;53.450;15.496;2023-04-05T07:04:18;100312.19;;;0.58;97.07
25722;BME280;13578;53.450;15.496;2023-04-05T07:07:18;100339.84;;;0.41;100.00
25722;BME280;13578;53.450;15.496;2023-04-05T07:10:19;100343.56;;;0.38;99.97
25722;BME280;13578;53.450;15.496;2023-04-05T07:13:21;100357.38;;;0.53;100.00
25722;BME280;13578;53.450;15.496;2023-04-05T07:16:22;100341.47;;;0.69;100.00
25722;BME280;13578;53.450;15.496;2023-04-05T07:19:22;100324.81;;;0.79;97.51
25722;BME280;13578;53.450;15.496;2023-04-05T07:22:23;100329.50;;;0.97;97.49
25722;BME280;13578;53.450;15.496;2023-04-05T07:25:24;100335.06;;;1.14;98.75
25722;BME280;13578;53.450;15.496;2023-04-05T07:28:24;100335.94;;;0.94;96.86
25722;BME280;13578;53.450;15.496;2023-04-05T07:31:25;100338.50;;;0.97;98.47
25722;BME280;13578;53.450;15.496;2023-04-05T07:34:26;100322.38;;;1.16;97.10
25722;BME280;13578;53.450;15.496;2023-04-05T07:37:27;100319.75;;;1.15;96.29
25722;BME280;13578;53.450;15.496;2023-04-05T07:40:28;100306.78;;;1.23;93.17
25722;BME280;13578;53.450;15.496;2023-04-05T07:43:28;100310.81;;;1.33;94.07
25722;BME280;13578;53.450;15.496;2023-04-05T07:46:29;100299.88;;;1.36;92.50
25722;BME280;13578;53.450;15.496;2023-04-05T07:49:30;100317.75;;;1.61;92.85
25722;BME280;13578;53.450;15.496;2023-04-05T07:52:31;100308.81;;;1.38;90.89
25722;BME280;13578;53.450;15.496;2023-04-05T07:55:31;100309.75;;;1.37;91.55
25722;BME280;13578;53.450;15.496;2023-04-05T07:58:32;100331.53;;;1.55;93.15
25722;BME280;13578;53.450;15.496;2023-04-05T08:01:33;100320.44;;;1.61;91.61
25722;BME280;13578;53.450;15.496;2023-04-05T08:04:34;100295.97;;;1.43;88.52
25722;BME280;13578;53.450;15.496;2023-04-05T08:07:35;100318.94;;;1.74;93.07
25722;BME280;13578;53.450;15.496;2023-04-05T08:10:39;100311.38;;;1.83;91.35
25722;BME280;13578;53.450;15.496;2023-04-05T08:13:40;100316.31;;;2.13;94.06
25722;BME280;13578;53.450;15.496;2023-04-05T08:16:42;100331.97;;;2.25;95.44
25722;BME280;13578;53.450;15.496;2023-04-05T08:19:42;100297.13;;;1.98;89.84
25722;BME280;13578;53.450;15.496;2023-04-05T08:22:43;100298.31;;;1.91;89.30
25722;BME280;13578;53.450;15.496;2023-04-05T08:25:44;100311.88;;;2.10;90.52
25722;BME280;13578;53.450;15.496;2023-04-05T08:28:45;100303.41;;;1.99;89.73
25722;BME280;13578;53.450;15.496;2023-04-05T08:31:45;100286.84;;;1.86;87.49
25722;BME280;13578;53.450;15.496;2023-04-05T08:34:46;100305.97;;;2.21;89.73
25722;BME280;13578;53.450;15.496;2023-04-05T08:37:47;100288.03;;;2.18;87.05
25722;BME280;13578;53.450;15.496;2023-04-05T08:40:47;100290.75;;;2.18;88.20
25722;BME280;13578;53.450;15.496;2023-04-05T08:43:55;100301.97;;;2.49;88.55
25722;BME280;13578;53.450;15.496;2023-04-05T08:46:59;100297.00;;;2.57;87.93
25722;BME280;13578;53.450;15.496;2023-04-05T08:50:00;100301.66;;;2.55;89.16
25722;BME280;13578;53.450;15.496;2023-04-05T08:53:02;100274.84;;;2.68;85.67
25722;BME280;13578;53.450;15.496;2023-04-05T08:56:03;100269.59;;;2.46;83.19
25722;BME280;13578;53.450;15.496;2023-04-05T08:59:06;100291.31;;;2.63;87.01
25722;BME280;13578;53.450;15.496;2023-04-05T09:02:13;100263.91;;;2.69;81.62
25722;BME280;13578;53.450;15.496;2023-04-05T09:05:15;100260.06;;;2.74;79.67
25722;BME280;13578;53.450;15.496;2023-04-05T09:08:17;100279.94;;;2.92;84.68
25722;BME280;13578;53.450;15.496;2023-04-05T09:11:18;100273.66;;;3.09;82.06
25722;BME280;13578;53.450;15.496;2023-04-05T09:14:20;100273.44;;;3.31;83.47
25722;BME280;13578;53.450;15.496;2023-04-05T09:17:21;100292.03;;;3.39;87.23
25722;BME280;13578;53.450;15.496;2023-04-05T09:20:22;100274.00;;;3.38;83.02
25722;BME280;13578;53.450;15.496;2023-04-05T09:23:23;100274.31;;;3.49;82.11
25722;BME280;13578;53.450;15.496;2023-04-05T09:26:24;100252.38;;;3.70;79.37
25722;BME280;13578;53.450;15.496;2023-04-05T09:29:29;100247.25;;;3.47;78.31
25722;BME280;13578;53.450;15.496;2023-04-05T09:32:30;100246.00;;;3.02;77.78
25722;BME280;13578;53.450;15.496;2023-04-05T09:35:31;100266.72;;;3.38;78.21
25722;BME280;13578;53.450;15.496;2023-04-05T09:38:43;100258.81;;;3.51;78.94
25722;BME280;13578;53.450;15.496;2023-04-05T09:42:13;100297.78;;;3.50;84.11
25722;BME280;13578;53.450;15.496;2023-04-05T09:45:15;100249.88;;;3.49;77.00
25722;BME280;13578;53.450;15.496;2023-04-05T09:48:17;100249.53;;;3.55;75.78
25722;BME280;13578;53.450;15.496;2023-04-05T09:51:19;100227.56;;;3.26;73.80
25722;BME280;13578;53.450;15.496;2023-04-05T09:54:20;100283.00;;;3.56;80.95
25722;BME280;13578;53.450;15.496;2023-04-05T09:57:22;100245.34;;;3.32;74.42
25722;BME280;13578;53.450;15.496;2023-04-05T10:00:23;100255.00;;;3.38;77.21
25722;BME280;13578;53.450;15.496;2023-04-05T10:03:24;100267.09;;;3.65;77.92
25722;BME280;13578;53.450;15.496;2023-04-05T10:06:39;100251.34;;;3.21;75.73
25722;BME280;13578;53.450;15.496;2023-04-05T10:09:47;100248.13;;;3.48;76.20
25722;BME280;13578;53.450;15.496;2023-04-05T10:12:48;100274.69;;;3.92;79.55
25722;BME280;13578;53.450;15.496;2023-04-05T10:15:49;100278.22;;;4.10;81.05
25722;BME280;13578;53.450;15.496;2023-04-05T10:18:52;100270.69;;;4.16;79.99
25722;BME280;13578;53.450;15.496;2023-04-05T10:21:53;100283.88;;;4.39;81.85
25722;BME280;13578;53.450;15.496;2023-04-05T10:25:00;100277.91;;;4.49;80.98
25722;BME280;13578;53.450;15.496;2023-04-05T10:28:10;100242.41;;;4.36;76.24
25722;BME280;13578;53.450;15.496;2023-04-05T10:34:28;100240.72;;;4.49;76.27
25722;BME280;13578;53.450;15.496;2023-04-05T10:41:08;100233.50;;;4.80;73.87
25722;BME280;13578;53.450;15.496;2023-04-05T10:44:10;100239.63;;;4.84;75.35
25722;BME280;13578;53.450;15.496;2023-04-05T10:47:13;100215.34;;;4.81;71.49
25722;BME280;13578;53.450;15.496;2023-04-05T10:50:21;100229.59;;;4.70;73.86
25722;BME280;13578;53.450;15.496;2023-04-05T10:53:22;100180.97;;;4.33;66.39
25722;BME280;13578;53.450;15.496;2023-04-05T10:56:25;100156.09;;;4.09;63.46
25722;BME280;13578;53.450;15.496;2023-04-05T10:59:27;100165.28;;;4.22;63.56
25722;BME280;13578;53.450;15.496;2023-04-05T11:02:29;100166.84;;;4.26;62.63
25722;BME280;13578;53.450;15.496;2023-04-05T11:05:33;100192.53;;;4.37;65.38
25722;BME280;13578;53.450;15.496;2023-04-05T11:08:40;100179.09;;;4.34;62.92
25722;BME280;13578;53.450;15.496;2023-04-05T11:11:44;100188.16;;;4.34;63.96
25722;BME280;13578;53.450;15.496;2023-04-05T11:14:45;100184.97;;;4.42;64.88
25722;BME280;13578;53.450;15.496;2023-04-05T11:21:24;100207.75;;;4.55;68.64
25722;BME280;13578;53.450;15.496;2023-04-05T11:24:49;100232.97;;;4.89;72.36
25722;BME280;13578;53.450;15.496;2023-04-05T11:28:00;100237.25;;;5.24;71.95
25722;BME280;13578;53.450;15.496;2023-04-05T11:31:18;100244.13;;;5.30;74.43
25722;BME280;13578;53.450;15.496;2023-04-05T11:34:22;100196.34;;;5.40;67.82
25722;BME280;13578;53.450;15.496;2023-04-05T11:38:04;100192.44;;;5.30;65.82
25722;BME280;13578;53.450;15.496;2023-04-05T11:41:14;100202.75;;;5.39;66.08
25722;BME280;13578;53.450;15.496;2023-04-05T11:44:16;100192.38;;;5.01;65.81
25722;BME280;13578;53.450;15.496;2023-04-05T11:47:18;100216.72;;;5.18;68.87
25722;BME280;13578;53.450;15.496;2023-04-05T11:50:21;100192.19;;;5.04;65.62
25722;BME280;13578;53.450;15.496;2023-04-05T11:53:22;100171.75;;;4.82;63.79
25722;BME280;13578;53.450;15.496;2023-04-05T11:56:23;100205.81;;;4.73;66.92
25722;BME280;13578;53.450;15.496;2023-04-05T11:59:36;100195.78;;;4.74;68.20
25722;BME280;13578;53.450;15.496;2023-04-05T12:02:42;100187.38;;;4.79;65.49
25722;BME280;13578;53.450;15.496;2023-04-05T12:05:44;100207.56;;;5.05;68.25
25722;BME280;13578;53.450;15.496;2023-04-05T12:08:45;100166.56;;;4.47;63.80
25722;BME280;13578;53.450;15.496;2023-04-05T12:11:52;100166.78;;;4.28;63.83
25722;BME280;13578;53.450;15.496;2023-04-05T12:15:01;100183.22;;;4.41;65.55
25722;BME280;13578;53.450;15.496;2023-04-05T12:18:02;100160.56;;;4.56;63.38
25722;BME280;13578;53.450;15.496;2023-04-05T12:21:07;100168.28;;;4.95;64.24
25722;BME280;13578;53.450;15.496;2023-04-05T12:24:08;100192.50;;;5.14;67.46
25722;BME280;13578;53.450;15.496;2023-04-05T12:27:09;100203.66;;;5.39;70.88
25722;BME280;13578;53.450;15.496;2023-04-05T12:36:27;100167.94;;;5.44;65.97
25722;BME280;13578;53.450;15.496;2023-04-05T12:39:31;100177.97;;;5.72;67.73
25722;BME280;13578;53.450;15.496;2023-04-05T12:42:34;100150.31;;;5.93;63.82
25722;BME280;13578;53.450;15.496;2023-04-05T12:45:35;100134.53;;;5.56;61.35
25722;BME280;13578;53.450;15.496;2023-04-05T12:48:40;100139.47;;;5.35;61.49
25722;BME280;13578;53.450;15.496;2023-04-05T12:51:42;100126.75;;;5.36;60.24
25722;BME280;13578;53.450;15.496;2023-04-05T12:54:52;100188.97;;;5.71;67.67
25722;BME280;13578;53.450;15.496;2023-04-05T12:57:55;100130.72;;;5.45;60.88
25722;BME280;13578;53.450;15.496;2023-04-05T13:00:58;100150.94;;;5.55;62.10
25722;BME280;13578;53.450;15.496;2023-04-05T13:04:00;100171.25;;;5.78;65.73
25722;BME280;13578;53.450;15.496;2023-04-05T13:07:01;100091.50;;;5.76;57.53
25722;BME280;13578;53.450;15.496;2023-04-05T13:10:01;100126.38;;;5.84;60.33
25722;BME280;13578;53.450;15.496;2023-04-05T13:13:02;100134.88;;;6.08;60.72
25722;BME280;13578;53.450;15.496;2023-04-05T13:16:03;100131.16;;;5.95;61.01
25722;BME280;13578;53.450;15.496;2023-04-05T13:19:03;100128.53;;;5.79;60.09
25722;BME280;13578;53.450;15.496;2023-04-05T13:22:04;100107.66;;;5.79;57.53
25722;BME280;13578;53.450;15.496;2023-04-05T13:25:05;100136.25;;;5.86;61.64
25722;BME280;13578;53.450;15.496;2023-04-05T13:28:07;100156.00;;;6.04;62.58
25722;BME280;13578;53.450;15.496;2023-04-05T13:31:08;100110.78;;;6.15;58.48
25722;BME280;13578;53.450;15.496;2023-04-05T13:34:08;100084.91;;;6.08;55.59
25722;BME280;13578;53.450;15.496;2023-04-05T13:37:09;100061.28;;;6.08;53.09
25722;BME280;13578;53.450;15.496;2023-04-05T13:40:10;100052.69;;;5.72;51.80
25722;BME280;13578;53.450;15.496;2023-04-05T13:43:11;100112.09;;;5.80;58.60
25722;BME280;13578;53.450;15.496;2023-04-05T13:46:12;100064.09;;;5.92;53.72
25722;BME280;13578;53.450;15.496;2023-04-05T13:49:13;100086.22;;;6.02;55.87
25722;BME280;13578;53.450;15.496;2023-04-05T13:52:13;100080.00;;;5.85;55.28
25722;BME280;13578;53.450;15.496;2023-04-05T13:55:14;100066.88;;;5.78;54.47
25722;BME280;13578;53.450;15.496;2023-04-05T13:58:15;100060.09;;;5.70;54.00
25722;BME280;13578;53.450;15.496;2023-04-05T14:01:16;100092.66;;;5.86;56.62
25722;BME280;13578;53.450;15.496;2023-04-05T14:04:17;100070.22;;;5.96;55.13
25722;BME280;13578;53.450;15.496;2023-04-05T14:07:18;100114.59;;;5.98;59.39
25722;BME280;13578;53.450;15.496;2023-04-05T14:10:19;100095.47;;;5.85;57.79
25722;BME280;13578;53.450;15.496;2023-04-05T14:13:21;100096.81;;;5.50;58.89
25722;BME280;13578;53.450;15.496;2023-04-05T14:16:22;100089.59;;;5.49;58.50
25722;BME280;13578;53.450;15.496;2023-04-05T14:19:22;100113.19;;;5.63;60.40
25722;BME280;13578;53.450;15.496;2023-04-05T14:22:23;100126.50;;;5.82;62.30
25722;BME280;13578;53.450;15.496;2023-04-05T14:25:25;100088.94;;;5.87;58.06
25722;BME280;13578;53.450;15.496;2023-04-05T14:28:25;100083.28;;;5.91;58.11
25722;BME280;13578;53.450;15.496;2023-04-05T14:31:26;100065.38;;;5.59;55.86
25722;BME280;13578;53.450;15.496;2023-04-05T14:34:27;100088.22;;;5.71;58.10
25722;BME280;13578;53.450;15.496;2023-04-05T14:37:27;100127.16;;;5.86;61.78
25722;BME280;13578;53.450;15.496;2023-04-05T14:40:28;100096.38;;;5.71;59.08
25722;BME280;13578;53.450;15.496;2023-04-05T14:43:29;100132.94;;;5.52;62.22
25722;BME280;13578;53.450;15.496;2023-04-05T14:46:30;100111.56;;;5.32;61.15
25722;BME280;13578;53.450;15.496;2023-04-05T14:49:30;100122.63;;;5.14;61.59
25722;BME280;13578;53.450;15.496;2023-04-05T14:52:31;100123.22;;;5.05;62.19
25722;BME280;13578;53.450;15.496;2023-04-05T14:55:31;100134.13;;;5.19;63.20
25722;BME280;13578;53.450;15.496;2023-04-05T14:58:32;100122.16;;;5.36;61.52
25722;BME280;13578;53.450;15.496;2023-04-05T15:01:33;100110.00;;;5.56;59.64
25722;BME280;13578;53.450;15.496;2023-04-05T15:04:34;100125.69;;;5.24;61.94
25722;BME280;13578;53.450;15.496;2023-04-05T15:07:35;100108.75;;;5.19;60.77
25722;BME280;13578;53.450;15.496;2023-04-05T15:10:36;100133.16;;;5.20;63.59
25722;BME280;13578;53.450;15.496;2023-04-05T15:13:38;100138.69;;;5.33;63.35
25722;BME280;13578;53.450;15.496;2023-04-05T15:16:38;100131.59;;;5.45;62.84
25722;BME280;13578;53.450;15.496;2023-04-05T15:19:39;100146.09;;;5.60;65.33
25722;BME280;13578;53.450;15.496;2023-04-05T15:22:39;100135.25;;;5.73;64.31
25722;BME280;13578;53.450;15.496;2023-04-05T15:25:40;100099.84;;;5.73;60.08
25722;BME280;13578;53.450;15.496;2023-04-05T15:28:41;100119.31;;;5.67;62.49
25722;BME280;13578;53.450;15.496;2023-04-05T15:31:41;100114.28;;;5.61;60.72
25722;BME280;13578;53.450;15.496;2023-04-05T15:34:42;100113.13;;;5.50;61.57
25722;BME280;13578;53.450;15.496;2023-04-05T15:37:43;100120.03;;;5.41;62.30
25722;BME280;13578;53.450;15.496;2023-04-05T15:40:46;100110.31;;;5.37;61.54
25722;BME280;13578;53.450;15.496;2023-04-05T15:43:46;100098.75;;;5.19;59.86
25722;BME280;13578;53.450;15.496;2023-04-05T15:46:47;100156.25;;;4.99;66.83
25722;BME280;13578;53.450;15.496;2023-04-05T15:49:48;100177.31;;;4.95;69.63
25722;BME280;13578;53.450;15.496;2023-04-05T15:52:50;100147.88;;;5.02;66.00
25722;BME280;13578;53.450;15.496;2023-04-05T15:55:51;100182.97;;;5.06;70.94
25722;BME280;13578;53.450;15.496;2023-04-05T15:58:51;100169.19;;;5.09;71.15
25722;BME280;13578;53.450;15.496;2023-04-05T16:01:52;100123.63;;;5.13;65.95
25722;BME280;13578;53.450;15.496;2023-04-05T16:04:53;100131.97;;;5.24;66.75
25722;BME280;13578;53.450;15.496;2023-04-05T16:07:53;100134.53;;;5.28;65.25